createdAt,value
2023-03-11T00:00:55.195Z,1.60
2023-03-11T00:03:25.643Z,1.33
2023-03-11T00:05:53.010Z,1.58
2023-03-11T00:08:20.984Z,1.90
2023-03-11T00:10:48.392Z,1.70
2023-03-11T00:13:15.497Z,1.60
2023-03-11T00:15:43.629Z,1.83
2023-03-11T00:18:10.148Z,2.08
2023-03-11T00:20:38.316Z,1.52
2023-03-11T00:23:05.452Z,1.50
2023-03-11T00:25:33.131Z,2.47
2023-03-11T00:27:59.984Z,1.10
2023-03-11T00:30:26.919Z,1.95
2023-03-11T00:32:54.288Z,1.58
2023-03-11T00:35:22.693Z,2.33
2023-03-11T00:37:49.311Z,1.92
2023-03-11T00:40:17.121Z,1.80
2023-03-11T00:42:43.903Z,1.40
2023-03-11T00:45:10.591Z,1.67
2023-03-11T00:47:37.246Z,1.52
2023-03-11T00:50:03.782Z,1.55
2023-03-11T00:52:30.221Z,1.55
2023-03-11T00:54:56.583Z,1.88
2023-03-11T00:57:23.085Z,1.52
2023-03-11T00:59:49.509Z,1.58
2023-03-11T01:02:16.418Z,1.05
2023-03-11T01:04:43.010Z,1.48
2023-03-11T01:07:11.374Z,1.65
2023-03-11T01:09:37.974Z,1.35
2023-03-11T01:12:04.476Z,1.05
2023-03-11T01:14:30.955Z,1.17
2023-03-11T01:16:57.449Z,1.48
2023-03-11T01:19:23.873Z,1.38
2023-03-11T01:21:50.312Z,1.42
2023-03-11T01:24:16.759Z,1.15
2023-03-11T01:26:43.338Z,1.85
2023-03-11T01:29:09.790Z,1.15
2023-03-11T01:31:36.208Z,1.15
2023-03-11T01:34:02.663Z,1.38
2023-03-11T01:36:29.077Z,1.13
2023-03-11T01:38:55.444Z,1.08
2023-03-11T01:41:21.851Z,1.00
2023-03-11T01:43:51.137Z,1.42
2023-03-11T01:46:28.311Z,0.80
2023-03-11T01:48:56.083Z,1.38
2023-03-11T01:51:34.681Z,1.65
2023-03-11T01:54:03.742Z,0.77
2023-03-11T01:56:30.732Z,1.17
2023-03-11T01:58:57.441Z,1.33
2023-03-11T02:01:24.071Z,1.25
2023-03-11T02:03:50.961Z,1.08
2023-03-11T02:06:19.416Z,0.75
2023-03-11T02:08:46.107Z,0.82
2023-03-11T02:11:15.811Z,0.65
2023-03-11T02:13:43.466Z,1.02
2023-03-11T02:16:10.149Z,0.77
2023-03-11T02:18:37.239Z,1.25
2023-03-11T02:21:07.016Z,0.85
2023-03-11T02:23:53.766Z,0.80
2023-03-11T02:26:23.742Z,1.00
2023-03-11T02:28:50.891Z,0.85
2023-03-11T02:31:17.566Z,0.93
2023-03-11T02:33:45.680Z,0.55
2023-03-11T02:36:34.622Z,0.55
2023-03-11T02:39:01.175Z,0.80
2023-03-11T02:41:28.366Z,0.68
2023-03-11T02:43:54.962Z,0.90
2023-03-11T02:46:21.397Z,0.85
2023-03-11T02:48:48.383Z,0.30
2023-03-11T02:51:14.861Z,0.93
2023-03-11T02:53:44.920Z,0.70
2023-03-11T02:56:11.362Z,0.60
2023-03-11T02:58:37.892Z,0.47
2023-03-11T03:01:04.527Z,0.30
2023-03-11T03:03:30.949Z,0.50
2023-03-11T03:05:57.376Z,0.30
2023-03-11T03:08:23.797Z,0.40
2023-03-11T03:10:50.228Z,0.40
2023-03-11T03:13:16.632Z,0.20
2023-03-11T03:15:43.049Z,0.38
2023-03-11T03:18:09.460Z,0.20
2023-03-11T03:20:36.044Z,0.40
2023-03-11T03:23:02.614Z,0.30
2023-03-11T03:25:29.299Z,0.43
2023-03-11T03:27:55.767Z,0.32
2023-03-11T03:30:22.328Z,0.45
2023-03-11T03:32:48.889Z,0.70
2023-03-11T03:35:15.628Z,0.68
2023-03-11T03:37:42.095Z,0.40
2023-03-11T03:40:08.949Z,0.30
2023-03-11T03:42:38.443Z,0.95
2023-03-11T03:45:06.428Z,0.20
2023-03-11T03:47:33.449Z,0.32
2023-03-11T03:50:00.057Z,0.10
2023-03-11T03:52:26.575Z,0.28
2023-03-11T03:54:53.026Z,0.20
2023-03-11T03:57:19.562Z,0.17
2023-03-11T03:59:46.003Z,0.28
2023-03-11T04:02:12.552Z,0.10
2023-03-11T04:04:39.038Z,0.10
2023-03-11T04:07:06.004Z,0.30
2023-03-11T04:09:32.798Z,0.10
2023-03-11T04:12:00.306Z,0.17
2023-03-11T04:14:26.890Z,0.20
2023-03-11T04:16:53.369Z,0.10
2023-03-11T04:19:19.948Z,0.20
2023-03-11T04:21:46.534Z,0.03
2023-03-11T04:24:13.001Z,0.10
2023-03-11T04:26:39.648Z,0.52
2023-03-11T04:29:06.059Z,0.32
2023-03-11T04:31:32.473Z,0.28
2023-03-11T04:33:58.940Z,0.30
2023-03-11T04:36:25.365Z,0.10
2023-03-11T04:38:51.799Z,0.10
2023-03-11T04:41:18.305Z,0.30
2023-03-11T04:43:44.744Z,0.10
2023-03-11T04:46:11.211Z,0.22
2023-03-11T04:48:37.675Z,0.10
2023-03-11T04:51:04.206Z,0.00
2023-03-11T04:53:30.674Z,0.00
2023-03-11T04:55:57.384Z,0.10
2023-03-11T04:58:23.781Z,0.10
2023-03-11T05:00:50.269Z,0.10
2023-03-11T05:03:16.810Z,0.00
2023-03-11T05:05:43.275Z,0.00
2023-03-11T05:08:09.705Z,0.20
2023-03-11T05:10:36.791Z,0.17
2023-03-11T05:13:03.239Z,0.55
2023-03-11T05:15:31.279Z,0.10
2023-03-11T05:17:57.864Z,0.20
2023-03-11T05:20:24.366Z,0.20
2023-03-11T05:22:50.869Z,0.20
2023-03-11T05:25:17.336Z,0.05
2023-03-11T05:27:43.886Z,0.10
2023-03-11T05:30:10.654Z,0.20
2023-03-11T05:32:37.136Z,0.03
2023-03-11T05:35:03.893Z,0.20
2023-03-11T05:37:33.466Z,0.17
2023-03-11T05:39:59.856Z,0.17
2023-03-11T05:42:26.250Z,0.10
2023-03-11T05:44:52.724Z,0.10
2023-03-11T05:47:19.576Z,0.20
2023-03-11T05:49:47.650Z,0.32
2023-03-11T05:52:14.128Z,0.10
2023-03-11T05:54:40.597Z,0.13
2023-03-11T05:57:07.004Z,0.10
2023-03-11T05:59:35.387Z,0.17
2023-03-11T06:02:01.926Z,0.75
2023-03-11T06:04:28.498Z,0.10
2023-03-11T06:06:55.072Z,0.10
2023-03-11T06:09:21.526Z,0.10
2023-03-11T06:11:47.954Z,0.10
2023-03-11T06:14:14.741Z,0.30
2023-03-11T06:16:41.716Z,0.30
2023-03-11T06:19:08.252Z,0.10
2023-03-11T06:21:34.659Z,0.30
2023-03-11T06:24:01.076Z,1.38
2023-03-11T06:26:27.510Z,0.85
2023-03-11T06:28:54.202Z,0.70
2023-03-11T06:31:22.424Z,0.60
2023-03-11T06:33:48.966Z,1.02
2023-03-11T06:36:16.273Z,1.20
2023-03-11T06:38:43.324Z,1.23
2023-03-11T06:41:10.304Z,1.23
2023-03-11T06:43:37.078Z,0.75
2023-03-11T06:46:10.490Z,0.80
2023-03-11T06:48:37.359Z,1.50
2023-03-11T06:51:03.923Z,0.80
2023-03-11T06:53:31.383Z,1.20
2023-03-11T06:56:02.651Z,1.25
2023-03-11T06:58:29.268Z,1.10
2023-03-11T07:00:59.831Z,0.77
2023-03-11T07:03:26.320Z,0.82
2023-03-11T07:05:52.715Z,0.63
2023-03-11T07:08:19.191Z,0.90
2023-03-11T07:10:45.753Z,1.10
2023-03-11T07:13:12.492Z,1.67
2023-03-11T07:15:38.922Z,0.60
2023-03-11T07:18:05.414Z,0.50
2023-03-11T07:20:31.903Z,0.57
2023-03-11T07:22:58.360Z,0.82
2023-03-11T07:25:24.791Z,0.70
2023-03-11T07:27:51.257Z,0.65
2023-03-11T07:30:19.366Z,0.70
2023-03-11T07:32:45.899Z,0.57
2023-03-11T07:35:12.406Z,0.57
2023-03-11T07:37:38.850Z,0.95
2023-03-11T07:40:05.518Z,0.65
2023-03-11T07:42:33.885Z,0.57
2023-03-11T07:45:00.312Z,0.63
2023-03-11T07:47:26.736Z,0.60
2023-03-11T07:49:53.162Z,0.75
2023-03-11T07:52:20.121Z,0.70
2023-03-11T07:54:47.337Z,0.70
2023-03-11T07:57:17.145Z,0.80
2023-03-11T07:59:43.797Z,0.98
2023-03-11T08:02:10.840Z,0.60
2023-03-11T08:04:37.262Z,0.47
2023-03-11T08:07:04.027Z,0.40
2023-03-11T08:09:30.478Z,0.68
2023-03-11T08:11:56.964Z,0.85
2023-03-11T08:14:23.437Z,0.75
2023-03-11T08:16:49.832Z,0.63
2023-03-11T08:19:16.176Z,0.73
2023-03-11T08:21:42.634Z,0.50
2023-03-11T08:24:10.828Z,0.70
2023-03-11T08:26:37.186Z,0.73
2023-03-11T08:29:03.749Z,0.70
2023-03-11T08:31:31.543Z,0.80
2023-03-11T08:33:59.860Z,0.88
2023-03-11T08:36:26.370Z,0.60
2023-03-11T08:38:53.027Z,0.60
2023-03-11T08:41:19.447Z,1.27
2023-03-11T08:43:45.911Z,1.02
2023-03-11T08:46:20.188Z,0.70
2023-03-11T08:48:46.820Z,0.60
2023-03-11T08:51:13.281Z,0.80
2023-03-11T08:53:40.094Z,0.57
2023-03-11T08:56:06.662Z,0.85
2023-03-11T08:58:33.172Z,0.63
2023-03-11T09:00:59.698Z,1.27
2023-03-11T09:03:26.101Z,0.57
2023-03-11T09:05:59.078Z,0.60
2023-03-11T09:08:25.786Z,0.88
2023-03-11T09:10:52.279Z,0.77
2023-03-11T09:13:18.828Z,0.73
2023-03-11T09:15:45.245Z,0.40
2023-03-11T09:18:12.813Z,0.60
2023-03-11T09:20:39.684Z,0.75
2023-03-11T09:23:10.736Z,0.40
2023-03-11T09:25:37.215Z,0.57
2023-03-11T09:28:03.740Z,0.75
2023-03-11T09:30:30.290Z,0.85
2023-03-11T09:32:56.744Z,0.75
2023-03-11T09:35:23.397Z,0.68
2023-03-11T09:37:49.889Z,0.60
2023-03-11T09:40:17.702Z,0.50
2023-03-11T09:42:52.842Z,0.77
2023-03-11T09:45:21.441Z,0.40
2023-03-11T09:48:03.276Z,0.65
2023-03-11T09:50:33.182Z,0.60
2023-03-11T09:53:18.944Z,0.40
2023-03-11T09:55:50.151Z,0.50
2023-03-11T09:58:29.403Z,0.55
2023-03-11T10:00:56.015Z,0.80
2023-03-11T10:03:27.459Z,0.43
2023-03-11T10:05:58.578Z,0.50
2023-03-11T10:08:29.107Z,0.47
2023-03-11T10:11:15.784Z,0.80
2023-03-11T10:14:05.502Z,0.55
2023-03-11T10:16:31.947Z,0.50
2023-03-11T10:19:04.881Z,0.45
2023-03-11T10:21:34.073Z,0.95
2023-03-11T10:24:03.633Z,0.47
2023-03-11T10:26:31.423Z,0.80
2023-03-11T10:29:02.400Z,0.70
2023-03-11T10:31:46.552Z,0.57
2023-03-11T10:34:15.836Z,0.50
2023-03-11T10:36:45.177Z,0.90
2023-03-11T10:39:11.841Z,0.43
2023-03-11T10:41:47.382Z,0.82
2023-03-11T10:44:23.946Z,0.63
2023-03-11T10:46:50.347Z,0.70
2023-03-11T10:49:17.937Z,0.70
2023-03-11T10:51:45.571Z,0.77
2023-03-11T10:54:21.723Z,0.63
2023-03-11T10:56:53.669Z,0.70
2023-03-11T10:59:25.030Z,0.70
2023-03-11T11:02:01.811Z,1.50
2023-03-11T11:04:29.800Z,1.05
2023-03-11T11:06:56.243Z,1.05
2023-03-11T11:09:26.873Z,0.57
2023-03-11T11:12:11.893Z,1.10
2023-03-11T11:14:48.678Z,1.33
2023-03-11T11:17:26.915Z,1.00
2023-03-11T11:19:54.449Z,0.70
2023-03-11T11:22:22.053Z,0.85
2023-03-11T11:24:49.243Z,0.70
2023-03-11T11:27:23.329Z,1.33
2023-03-11T11:30:09.981Z,0.75
2023-03-11T11:32:37.462Z,0.70
2023-03-11T11:35:05.743Z,0.80
2023-03-11T11:37:33.655Z,0.70
2023-03-11T11:40:11.513Z,0.98
2023-03-11T11:42:39.155Z,0.90
2023-03-11T11:45:12.383Z,0.68
2023-03-11T11:47:41.962Z,0.65
2023-03-11T11:50:14.835Z,0.93
2023-03-11T11:52:45.177Z,0.95
2023-03-11T11:55:23.932Z,0.75
2023-03-11T11:57:51.447Z,0.68
2023-03-11T12:00:24.300Z,0.80
2023-03-11T12:03:02.292Z,0.80
2023-03-11T12:05:34.934Z,1.25
2023-03-11T12:08:01.357Z,0.85
2023-03-11T12:10:40.048Z,0.98
2023-03-11T12:13:18.689Z,0.60
2023-03-11T12:15:48.262Z,0.82
2023-03-11T12:18:26.516Z,0.85
2023-03-11T12:20:56.439Z,1.02
2023-03-11T12:23:41.594Z,0.70
2023-03-11T12:26:14.233Z,0.68
2023-03-11T12:28:46.766Z,0.75
2023-03-11T12:31:13.781Z,0.90
2023-03-11T12:33:51.786Z,0.88
2023-03-11T12:36:38.484Z,1.40
2023-03-11T12:39:06.768Z,1.13
2023-03-11T12:41:42.242Z,0.77
2023-03-11T12:44:23.058Z,1.02
2023-03-11T12:46:58.821Z,1.20
2023-03-11T12:49:26.752Z,1.63
2023-03-11T12:52:04.272Z,0.75
2023-03-11T12:54:32.221Z,1.00
2023-03-11T12:57:00.000Z,0.80
2023-03-11T12:59:32.529Z,1.05
2023-03-11T13:02:24.915Z,0.57
2023-03-11T13:04:57.982Z,0.60
2023-03-11T13:07:43.576Z,2.00
2023-03-11T13:10:15.285Z,1.27
2023-03-11T13:12:46.581Z,1.63
2023-03-11T13:15:19.934Z,1.42
2023-03-11T13:17:59.655Z,0.90
2023-03-11T13:20:44.556Z,1.25
2023-03-11T13:23:14.095Z,1.02
2023-03-11T13:25:56.535Z,0.90
2023-03-11T13:28:41.819Z,1.00
2023-03-11T13:31:17.836Z,0.88
2023-03-11T13:33:52.351Z,1.08
2023-03-11T13:36:24.423Z,0.80
2023-03-11T13:39:02.413Z,1.10
2023-03-11T13:41:34.818Z,1.75
2023-03-11T13:46:32.470Z,1.10
2023-03-11T13:49:04.841Z,1.20
2023-03-11T13:53:59.732Z,1.92
2023-03-11T13:56:27.956Z,1.05
2023-03-11T13:58:54.392Z,1.00
2023-03-11T14:01:20.905Z,1.05
2023-03-11T14:03:47.921Z,1.15
2023-03-11T14:06:20.730Z,0.90
2023-03-11T14:08:57.773Z,1.08
2023-03-11T14:11:29.282Z,1.25
2023-03-11T14:13:55.792Z,1.37
2023-03-11T14:16:44.102Z,1.83
2023-03-11T14:19:15.376Z,1.20
2023-03-11T14:21:42.862Z,1.25
2023-03-11T14:24:15.343Z,1.42
2023-03-11T14:26:42.589Z,1.10
2023-03-11T14:29:10.739Z,1.45
2023-03-11T14:31:38.416Z,1.80
2023-03-11T14:34:12.316Z,1.17
2023-03-11T14:36:43.493Z,0.80
2023-03-11T14:39:28.804Z,0.95
2023-03-11T14:41:58.486Z,1.23
2023-03-11T14:44:26.586Z,1.30
2023-03-11T14:46:56.370Z,1.02
2023-03-11T14:49:23.475Z,2.20
2023-03-11T14:51:52.663Z,1.10
2023-03-11T14:54:22.689Z,1.13
2023-03-11T14:56:52.930Z,1.05
2023-03-11T14:59:26.944Z,1.20
2023-03-11T15:01:55.304Z,1.27
2023-03-11T15:04:34.436Z,2.13
2023-03-11T15:07:01.759Z,1.40
2023-03-11T15:09:28.867Z,1.02
2023-03-11T15:11:59.407Z,1.75
2023-03-11T15:14:26.990Z,1.27
2023-03-11T15:16:54.430Z,1.00
2023-03-11T15:19:29.854Z,1.27
2023-03-11T15:21:59.507Z,1.02
2023-03-11T15:24:27.938Z,1.17
2023-03-11T15:27:06.081Z,1.13
2023-03-11T15:29:33.851Z,1.38
2023-03-11T15:32:00.726Z,1.50
2023-03-11T15:34:29.101Z,1.25
2023-03-11T15:36:57.277Z,1.10
2023-03-11T15:39:32.695Z,1.35
2023-03-11T15:42:03.974Z,0.75
2023-03-11T15:44:36.340Z,1.10
2023-03-11T15:49:29.892Z,0.95
2023-03-11T15:51:59.816Z,1.50
2023-03-11T15:54:26.684Z,1.05
2023-03-11T15:56:55.250Z,1.15
2023-03-11T15:59:22.375Z,1.13
2023-03-11T16:01:48.952Z,1.13
2023-03-11T16:04:17.272Z,1.10
2023-03-11T16:06:43.996Z,1.40
2023-03-11T16:09:12.793Z,1.35
2023-03-11T16:11:39.836Z,1.20
2023-03-11T16:14:06.381Z,1.30
2023-03-11T16:16:32.903Z,1.10
2023-03-11T16:18:59.251Z,1.00
2023-03-11T16:21:31.773Z,0.98
2023-03-11T16:23:58.309Z,1.00
2023-03-11T16:26:24.690Z,0.98
2023-03-11T16:28:51.157Z,1.63
2023-03-11T16:31:17.741Z,1.52
2023-03-11T16:33:44.149Z,1.25
2023-03-11T16:36:10.922Z,1.48
2023-03-11T16:38:47.661Z,1.27
2023-03-11T16:41:14.469Z,1.27
2023-03-11T16:43:41.271Z,1.73
2023-03-11T16:46:08.040Z,1.15
2023-03-11T16:48:34.661Z,1.45
2023-03-11T16:51:01.340Z,1.40
2023-03-11T16:53:27.929Z,1.33
2023-03-11T16:55:54.391Z,1.45
2023-03-11T16:58:21.122Z,1.40
2023-03-11T17:00:47.572Z,1.10
2023-03-11T17:03:14.720Z,1.67
2023-03-11T17:05:41.186Z,1.35
2023-03-11T17:08:07.726Z,1.13
2023-03-11T17:10:38.289Z,1.40
2023-03-11T17:13:05.480Z,1.50
2023-03-11T17:15:32.273Z,1.17
2023-03-11T17:17:58.763Z,1.10
2023-03-11T17:20:25.313Z,1.27
2023-03-11T17:22:51.993Z,1.95
2023-03-11T17:25:18.504Z,1.20
2023-03-11T17:27:44.969Z,1.08
2023-03-11T17:30:11.789Z,1.00
2023-03-11T17:32:38.305Z,1.67
2023-03-11T17:35:05.203Z,1.20
2023-03-11T17:37:31.911Z,1.10
2023-03-11T17:39:58.573Z,1.58
2023-03-11T17:42:25.043Z,1.35
2023-03-11T17:44:54.939Z,1.13
2023-03-11T17:47:21.999Z,1.30
2023-03-11T17:49:48.963Z,1.15
2023-03-11T17:52:15.401Z,1.20
2023-03-11T17:54:42.098Z,1.75
2023-03-11T17:57:09.724Z,1.08
2023-03-11T17:59:36.177Z,1.50
2023-03-11T18:02:02.717Z,1.08
2023-03-11T18:04:29.198Z,1.77
2023-03-11T18:06:55.780Z,1.85
2023-03-11T18:09:22.856Z,1.27
2023-03-11T18:11:49.289Z,1.13
2023-03-11T18:14:15.807Z,1.45
2023-03-11T18:16:42.262Z,1.70
2023-03-11T18:19:08.883Z,1.38
2023-03-11T18:21:35.284Z,1.30
2023-03-11T18:24:01.848Z,1.92
2023-03-11T18:26:29.217Z,1.67
2023-03-11T18:28:56.175Z,2.00
2023-03-11T18:31:23.509Z,1.40
2023-03-11T18:33:54.185Z,1.45
2023-03-11T18:36:25.254Z,1.38
2023-03-11T18:38:52.482Z,1.90
2023-03-11T18:41:19.057Z,1.85
2023-03-11T18:43:45.567Z,2.25
2023-03-11T18:46:14.804Z,2.33
2023-03-11T18:48:41.405Z,2.30
2023-03-11T18:51:09.036Z,2.33
2023-03-11T18:53:35.969Z,2.83
2023-03-11T18:56:04.095Z,2.28
2023-03-11T18:58:30.486Z,2.17
2023-03-11T19:01:03.736Z,2.63
2023-03-11T19:03:30.192Z,2.30
2023-03-11T19:05:56.636Z,2.22
2023-03-11T19:08:23.075Z,2.30
2023-03-11T19:10:49.669Z,2.05
2023-03-11T19:13:19.327Z,2.45
2023-03-11T19:15:46.322Z,2.28
2023-03-11T19:18:13.091Z,2.90
2023-03-11T19:20:39.508Z,2.53
2023-03-11T19:23:06.768Z,2.30
2023-03-11T19:25:33.611Z,2.47
2023-03-11T19:28:00.316Z,2.72
2023-03-11T19:30:26.952Z,3.85
2023-03-11T19:32:53.769Z,2.13
2023-03-11T19:35:21.200Z,2.55
2023-03-11T19:37:48.311Z,2.97
2023-03-11T19:40:15.568Z,2.40
2023-03-11T19:42:42.074Z,3.20
2023-03-11T19:45:08.679Z,2.47
2023-03-11T19:47:35.182Z,3.90
2023-03-11T19:50:01.911Z,3.10
2023-03-11T19:52:28.344Z,2.80
2023-03-11T19:54:54.826Z,3.25
2023-03-11T19:57:21.249Z,2.75
2023-03-11T19:59:47.670Z,3.22
2023-03-11T20:02:14.105Z,3.03
2023-03-11T20:04:43.084Z,2.67
2023-03-11T20:07:09.764Z,2.60
2023-03-11T20:09:36.219Z,3.45
2023-03-11T20:12:02.774Z,3.35
2023-03-11T20:14:29.306Z,3.28
2023-03-11T20:16:55.848Z,3.55
2023-03-11T20:19:22.409Z,2.95
2023-03-11T20:21:49.120Z,3.00
2023-03-11T20:24:15.582Z,2.95
2023-03-11T20:26:42.039Z,2.70
2023-03-11T20:29:08.680Z,2.92
2023-03-11T20:31:36.449Z,3.10
2023-03-11T20:34:03.518Z,2.45
2023-03-11T20:36:31.189Z,2.97
2023-03-11T20:38:57.830Z,2.25
2023-03-11T20:41:28.350Z,2.85
2023-03-11T20:43:55.836Z,2.75
2023-03-11T20:46:22.347Z,2.70
2023-03-11T20:48:48.828Z,2.33
2023-03-11T20:51:16.474Z,2.83
2023-03-11T20:53:43.088Z,2.45
2023-03-11T20:56:14.778Z,3.30
2023-03-11T20:58:42.042Z,2.50
2023-03-11T21:01:11.783Z,2.42
2023-03-11T21:03:38.629Z,2.85
2023-03-11T21:06:05.208Z,2.55
2023-03-11T21:08:31.745Z,2.75
2023-03-11T21:11:01.412Z,2.92
2023-03-11T21:13:27.868Z,3.00
2023-03-11T21:15:55.226Z,2.70
2023-03-11T21:18:21.985Z,3.13
2023-03-11T21:20:48.468Z,3.00
2023-03-11T21:23:14.908Z,2.70
2023-03-11T21:25:42.728Z,2.47
2023-03-11T21:28:09.643Z,2.63
2023-03-11T21:30:36.315Z,2.83
2023-03-11T21:33:03.024Z,2.40
2023-03-11T21:35:29.627Z,2.80
2023-03-11T21:37:56.115Z,2.95
2023-03-11T21:40:24.424Z,2.90
2023-03-11T21:42:51.376Z,2.83
2023-03-11T21:45:18.537Z,2.38
2023-03-11T21:47:45.218Z,3.03
2023-03-11T21:50:12.086Z,3.35
2023-03-11T21:52:38.566Z,3.35
2023-03-11T21:55:05.293Z,3.10
2023-03-11T21:57:31.702Z,3.45
2023-03-11T21:59:58.149Z,3.28
2023-03-11T22:02:24.572Z,3.10
2023-03-11T22:04:51.184Z,3.08
2023-03-11T22:07:17.631Z,2.83
2023-03-11T22:09:44.059Z,3.30
2023-03-11T22:12:10.708Z,3.08
2023-03-11T22:14:37.274Z,3.08
2023-03-11T22:17:03.786Z,3.53
2023-03-11T22:19:30.319Z,2.58
2023-03-11T22:21:56.732Z,3.50
2023-03-11T22:24:23.150Z,3.05
2023-03-11T22:26:49.597Z,3.50
2023-03-11T22:29:16.200Z,3.10
2023-03-11T22:31:42.688Z,3.45
2023-03-11T22:34:09.232Z,2.58
2023-03-11T22:36:35.634Z,3.38
2023-03-11T22:39:04.330Z,3.10
2023-03-11T22:41:31.265Z,2.63
2023-03-11T22:43:57.819Z,2.88
2023-03-11T22:46:24.405Z,3.33
2023-03-11T22:48:50.872Z,2.85
2023-03-11T22:51:17.549Z,3.20
2023-03-11T22:53:44.088Z,3.92
2023-03-11T22:56:12.033Z,3.40
2023-03-11T22:58:38.701Z,3.70
2023-03-11T23:01:05.550Z,3.13
2023-03-11T23:03:32.781Z,2.72
2023-03-11T23:06:00.066Z,3.88
2023-03-11T23:08:26.827Z,3.63
2023-03-11T23:10:53.248Z,2.90
2023-03-11T23:13:19.732Z,3.42
2023-03-11T23:15:46.777Z,3.70
2023-03-11T23:18:13.592Z,3.10
2023-03-11T23:20:41.118Z,3.50
2023-03-11T23:23:08.308Z,3.70
2023-03-11T23:25:35.408Z,3.92
2023-03-11T23:28:03.377Z,4.07
2023-03-11T23:30:29.992Z,2.83
2023-03-11T23:32:57.302Z,4.45
2023-03-11T23:35:24.309Z,3.30
2023-03-11T23:37:50.953Z,3.92
2023-03-11T23:40:17.535Z,3.03
2023-03-11T23:42:44.060Z,3.47
2023-03-11T23:45:11.091Z,3.45
2023-03-11T23:47:37.734Z,3.78
2023-03-11T23:50:04.744Z,3.00
2023-03-11T23:52:31.139Z,2.75
2023-03-11T23:54:57.561Z,3.08
2023-03-11T23:57:24.000Z,3.90
2023-03-11T23:59:50.574Z,3.60
